Time,TemperatureF,DewpointF,PressureIn,WindDirection,WindDirectionDegrees,WindSpeedMPH,WindSpeedGustMPH,Humidity,HourlyPrecipIn,Conditions,Clouds,dailyrainin,SoftwareType,DateUTC
2013-10-28 00:01:00,34.3,24.8,29.94,West,270,0.0,0.0,68,0.00,RA,,0.00,WeatherDisplay:10.37,2013-10-28 04:01:00,
2013-10-28 00:06:00,34.3,24.8,29.94,WNW,292,0.0,0.0,68,0.00,RA,,0.00,WeatherDisplay:10.37,2013-10-28 04:06:00,
2013-10-28 00:11:00,34.3,24.8,29.94,West,270,0.0,0.0,68,0.00,CLR,,0.00,WeatherDisplay:10.37,2013-10-28 04:11:00,
2013-10-28 00:16:00,34.3,25.2,29.95,NW,315,0.0,0.0,69,0.00,CLR,,0.00,WeatherDisplay:10.37,2013-10-28 04:16:00,
2013-10-28 00:21:00,34.2,25.1,29.95,NW,315,0.0,0.0,69,0.00,CLR,,0.00,WeatherDisplay:10.37,2013-10-28 04:21:00,
2013-10-28 00:26:00,34.3,25.5,29.95,NW,315,0.0,0.0,70,0.00,CLR,,0.00,WeatherDisplay:10.37,2013-10-28 04:26:00,
2013-10-28 00:31:00,33.8,25.0,29.95,NNW,338,0.0,0.0,70,0.00,CLR,,0.00,WeatherDisplay:10.37,2013-10-28 04:31:00,
2013-10-28 00:36:00,33.8,25.0,29.95,NNW,338,0.0,0.0,70,0.00,CLR,,0.00,WeatherDisplay:10.37,2013-10-28 04:36:00,
2013-10-28 00:41:00,33.8,25.4,29.95,NNW,338,0.0,0.0,71,0.00,CLR,,0.00,WeatherDisplay:10.37,2013-10-28 04:41:00,
2013-10-28 00:46:00,33.6,25.2,29.95,NNW,338,0.0,0.0,71,0.00,CLR,,0.00,WeatherDisplay:10.37,2013-10-28 04:46:00,
2013-10-28 00:51:00,33.6,25.2,29.96,NW,315,0.0,0.0,71,0.00,CLR,,0.00,WeatherDisplay:10.37,2013-10-28 04:51:00,
2013-10-28 00:56:00,33.1,24.7,29.96,NW,315,0.0,0.0,71,0.00,CLR,,0.00,WeatherDisplay:10.37,2013-10-28 04:56:00,
2013-10-28 01:01:00,32.9,24.5,29.96,NNW,338,0.0,0.0,71,0.00,CLR,,0.00,WeatherDisplay:10.37,2013-10-28 05:01:00,
2013-10-28 01:06:00,33.1,25.1,29.96,West,270,1.1,1.1,72,0.00,CLR,,0.00,WeatherDisplay:10.37,2013-10-28 05:06:00,
2013-10-28 01:11:00,32.7,25.0,29.96,WSW,248,1.2,0.0,73,0.00,CLR,,0.00,WeatherDisplay:10.37,2013-10-28 05:11:00,
2013-10-28 01:16:00,32.7,25.0,29.96,West,270,0.0,0.0,73,0.00,CLR,,0.00,WeatherDisplay:10.37,2013-10-28 05:16:00,
2013-10-28 01:21:00,32.5,24.8,29.96,SW,225,0.0,0.0,73,0.00,CLR,,0.00,WeatherDisplay:10.37,2013-10-28 05:21:00,
2013-10-28 01:26:00,32.5,24.8,29.96,WSW,248,0.0,0.0,73,0.00,CLR,,0.00,WeatherDisplay:10.37,2013-10-28 05:26:00,
2013-10-28 01:31:00,32.4,25.0,29.96,SW,225,0.0,0.0,74,0.00,CLR,,0.00,WeatherDisplay:10.37,2013-10-28 05:31:00,
2013-10-28 01:36:00,32.4,25.0,29.96,WNW,292,0.0,0.0,74,0.00,CLR,,0.00,WeatherDisplay:10.37,2013-10-28 05:36:00,
2013-10-28 01:41:00,32.4,25.0,29.97,WNW,292,0.0,0.0,74,0.00,CLR,,0.00,WeatherDisplay:10.37,2013-10-28 05:41:00,
2013-10-28 01:46:00,32.2,25.2,29.97,NW,315,0.0,0.0,75,0.00,CLR,,0.00,WeatherDisplay:10.37,2013-10-28 05:46:00,
2013-10-28 01:51:00,32.4,25.4,29.97,NW,315,0.0,0.0,75,0.00,CLR,,0.00,WeatherDisplay:10.37,2013-10-28 05:51:00,
2013-10-28 01:55:00,59.0,32.7,29.97,West,260,6.0,16.0,37,0.00,CLR,,0.00,WeatherDisplay:10.37,2013-10-28 05:55:00,
2013-10-28 01:56:00,32.4,25.4,29.97,NW,315,0.0,0.0,75,0.00,CLR,,0.00,WeatherDisplay:10.37,2013-10-28 05:56:00,
2013-10-28 02:00:00,59.0,32.7,29.97,West,270,6.0,7.0,37,0.00,CLR,,0.00,WeatherDisplay:10.37,2013-10-28 06:00:00,
2013-10-28 02:01:00,32.4,25.4,29.97,WNW,292,0.0,0.0,75,0.00,CLR,,0.00,WeatherDisplay:10.37,2013-10-28 06:01:00,
2013-10-28 02:05:00,58.0,32.5,29.97,WNW,283,6.0,7.0,38,0.00,CLR,,0.00,WeatherDisplay:10.37,2013-10-28 06:05:00,
2013-10-28 02:06:00,32.2,25.2,29.97,WNW,292,0.0,0.0,75,0.00,CLR,,0.00,WeatherDisplay:10.37,2013-10-28 06:06:00,
2013-10-28 02:10:00,58.0,32.5,29.97,NW,307,6.0,6.0,38,0.00,CLR,,0.00,WeatherDisplay:10.37,2013-10-28 06:10:00,
2013-10-28 02:11:00,32.0,25.0,29.97,WNW,292,0.0,0.0,75,0.00,CLR,,0.00,WeatherDisplay:10.37,2013-10-28 06:11:00,
2013-10-28 02:15:00,58.0,33.2,29.97,NW,311,6.0,6.0,39,0.00,CLR,,0.00,WeatherDisplay:10.37,2013-10-28 06:15:00,
2013-10-28 02:16:00,32.0,25.0,29.96,WNW,292,0.0,0.0,75,0.00,CLR,,0.00,WeatherDisplay:10.37,2013-10-28 06:16:00,
2013-10-28 02:20:00,58.0,33.2,29.97,WNW,288,6.0,6.0,39,0.00,CLR,,0.00,WeatherDisplay:10.37,2013-10-28 06:20:00,
2013-10-28 02:21:00,31.8,24.8,29.96,WNW,292,0.0,0.0,75,0.00,CLR,,0.00,WeatherDisplay:10.37,2013-10-28 06:21:00,
2013-10-28 02:25:00,58.0,33.2,29.97,West,270,6.0,6.0,39,0.00,CLR,,0.00,WeatherDisplay:10.37,2013-10-28 06:25:00,
2013-10-28 02:26:00,31.6,24.9,29.96,WNW,292,0.0,0.0,76,0.00,CLR,,0.00,WeatherDisplay:10.37,2013-10-28 06:26:00,
2013-10-28 02:30:00,58.0,33.2,29.97,West,270,3.0,5.0,39,0.00,CLR,,0.00,WeatherDisplay:10.37,2013-10-28 06:30:00,
2013-10-28 02:31:00,31.5,24.8,29.96,SW,225,0.0,0.0,76,0.00,CLR,,0.00,WeatherDisplay:10.37,2013-10-28 06:31:00,
2013-10-28 02:35:00,58.0,33.2,29.97,West,270,3.0,5.0,39,0.00,CLR,,0.00,WeatherDisplay:10.37,2013-10-28 06:35:00,
2013-10-28 02:36:00,31.5,25.1,29.96,West,270,0.0,0.0,77,0.00,CLR,,0.00,WeatherDisplay:10.37,2013-10-28 06:36:00,
2013-10-28 02:40:00,58.0,33.8,29.97,WNW,282,6.0,6.0,40,0.00,CLR,,0.00,WeatherDisplay:10.37,2013-10-28 06:40:00,
2013-10-28 02:41:00,31.5,25.1,29.97,NW,315,0.0,0.0,77,0.00,CLR,,0.00,WeatherDisplay:10.37,2013-10-28 06:41:00,
2013-10-28 02:45:00,58.0,33.8,29.97,NW,306,6.0,6.0,40,0.00,CLR,,0.00,WeatherDisplay:10.37,2013-10-28 06:45:00,
2013-10-28 02:46:00,31.5,25.4,29.97,NW,315,0.0,0.0,78,0.00,CLR,,0.00,WeatherDisplay:10.37,2013-10-28 06:46:00,
2013-10-28 02:50:00,58.0,33.8,29.97,NW,315,6.0,6.0,40,0.00,CLR,,0.00,WeatherDisplay:10.37,2013-10-28 06:50:00,
2013-10-28 02:51:00,31.5,25.4,29.97,WNW,292,0.0,0.0,78,0.00,CLR,,0.00,WeatherDisplay:10.37,2013-10-28 06:51:00,
2013-10-28 02:55:00,57.0,32.9,29.97,WNW,300,3.0,3.0,40,0.00,CLR,,0.00,WeatherDisplay:10.37,2013-10-28 06:55:00,
2013-10-28 02:56:00,31.5,25.4,29.97,WNW,292,0.0,0.0,78,0.00,CLR,,0.00,WeatherDisplay:10.37,2013-10-28 06:56:00,
2013-10-28 03:00:00,57.0,32.9,29.97,West,270,3.0,3.0,40,0.00,CLR,,0.00,WeatherDisplay:10.37,2013-10-28 07:00:00,
2013-10-28 03:01:00,31.5,25.4,29.97,West,270,0.0,0.0,78,0.00,CLR,,0.00,WeatherDisplay:10.37,2013-10-28 07:01:00,
2013-10-28 03:05:00,59.0,33.4,29.97,WNW,303,3.0,7.0,38,0.00,CLR,,0.00,WeatherDisplay:10.37,2013-10-28 07:05:00,
2013-10-28 03:06:00,31.6,25.5,29.96,West,270,0.0,0.0,78,0.00,CLR,,0.00,WeatherDisplay:10.37,2013-10-28 07:06:00,
2013-10-28 03:10:00,59.0,33.4,29.97,North,11,3.0,7.0,38,0.00,CLR,,0.00,WeatherDisplay:10.37,2013-10-28 07:10:00,
2013-10-28 03:11:00,31.6,25.5,29.96,WSW,248,0.0,0.0,78,0.00,CLR,,0.00,WeatherDisplay:10.37,2013-10-28 07:11:00,
2013-10-28 03:15:00,58.0,33.2,29.97,NNE,15,5.0,7.0,39,0.00,CLR,,0.00,WeatherDisplay:10.37,2013-10-28 07:15:00,
2013-10-28 03:16:00,31.6,25.5,29.97,WSW,248,0.0,0.0,78,0.00,CLR,,0.00,WeatherDisplay:10.37,2013-10-28 07:16:00,
2013-10-28 03:20:00,58.0,33.2,29.97,NW,305,5.0,7.0,39,0.00,CLR,,0.00,WeatherDisplay:10.37,2013-10-28 07:20:00,
2013-10-28 03:21:00,31.5,25.4,29.97,WSW,248,0.0,0.0,78,0.00,CLR,,0.00,WeatherDisplay:10.37,2013-10-28 07:21:00,
2013-10-28 03:25:00,58.0,33.2,29.97,West,270,5.0,7.0,39,0.00,CLR,,0.00,WeatherDisplay:10.37,2013-10-28 07:25:00,
2013-10-28 03:26:00,31.3,25.2,29.97,WSW,248,0.0,0.0,78,0.00,CLR,,0.00,WeatherDisplay:10.37,2013-10-28 07:26:00,
2013-10-28 03:30:00,58.0,33.2,29.97,NW,315,5.0,7.0,39,0.00,CLR,,0.00,WeatherDisplay:10.37,2013-10-28 07:30:00,
2013-10-28 03:31:00,31.5,25.7,29.97,WNW,292,0.0,0.0,79,0.00,CLR,,0.00,WeatherDisplay:10.37,2013-10-28 07:31:00,
2013-10-28 03:35:00,58.0,33.2,29.97,NNE,17,5.0,5.0,39,0.00,CLR,,0.00,WeatherDisplay:10.37,2013-10-28 07:35:00,
2013-10-28 03:36:00,31.5,25.7,29.97,West,270,0.0,0.0,79,0.00,CLR,,0.00,WeatherDisplay:10.37,2013-10-28 07:36:00,
2013-10-28 03:40:00,57.0,32.3,29.97,NNE,12,7.0,7.0,39,0.00,CLR,,0.00,WeatherDisplay:10.37,2013-10-28 07:40:00,
2013-10-28 03:41:00,31.5,25.7,29.96,WNW,292,0.0,0.0,79,0.00,CLR,,0.00,WeatherDisplay:10.37,2013-10-28 07:41:00,
2013-10-28 03:45:00,57.0,32.3,29.97,North,349,7.0,7.0,39,0.00,CLR,,0.00,WeatherDisplay:10.37,2013-10-28 07:45:00,
2013-10-28 03:46:00,31.6,25.8,29.96,WNW,292,0.0,0.0,79,0.00,CLR,,0.00,WeatherDisplay:10.37,2013-10-28 07:46:00,
2013-10-28 03:50:00,57.0,32.3,29.97,NNW,338,7.0,7.0,39,0.00,CLR,,0.00,WeatherDisplay:10.37,2013-10-28 07:50:00,
2013-10-28 03:51:00,31.6,25.8,29.97,WNW,292,0.0,0.0,79,0.00,CLR,,0.00,WeatherDisplay:10.37,2013-10-28 07:51:00,
2013-10-28 03:55:00,57.0,32.9,29.97,NNW,332,2.0,3.0,40,0.00,CLR,,0.00,WeatherDisplay:10.37,2013-10-28 07:55:00,
2013-10-28 03:56:00,31.6,25.8,29.97,WNW,292,0.0,0.0,79,0.00,CLR,,0.00,WeatherDisplay:10.37,2013-10-28 07:56:00,
2013-10-28 04:00:00,57.0,32.9,29.97,NW,315,2.0,3.0,40,0.00,CLR,,0.00,WeatherDisplay:10.37,2013-10-28 08:00:00,
2013-10-28 04:01:00,31.5,25.7,29.97,West,270,0.0,0.0,79,0.00,CLR,,0.00,WeatherDisplay:10.37,2013-10-28 08:01:00,
2013-10-28 04:05:00,57.0,32.9,29.97,NNW,340,3.0,5.0,40,0.00,CLR,,0.00,WeatherDisplay:10.37,2013-10-28 08:05:00,
2013-10-28 04:06:00,31.5,25.7,29.97,West,270,0.0,0.0,79,0.00,CLR,,0.00,WeatherDisplay:10.37,2013-10-28 08:06:00,
2013-10-28 04:10:00,57.0,32.9,29.97,NNE,14,3.0,5.0,40,0.00,CLR,,0.00,WeatherDisplay:10.37,2013-10-28 08:10:00,
2013-10-28 04:11:00,31.5,25.7,29.97,West,270,0.0,0.0,79,0.00,CLR,,0.00,WeatherDisplay:10.37,2013-10-28 08:11:00,
2013-10-28 04:15:00,57.0,33.5,29.97,NNE,22,7.0,8.0,41,0.00,CLR,,0.00,WeatherDisplay:10.37,2013-10-28 08:15:00,
2013-10-28 04:16:00,31.5,25.7,29.97,West,270,0.0,0.0,79,0.00,CLR,,0.00,WeatherDisplay:10.37,2013-10-28 08:16:00,
2013-10-28 04:20:00,57.0,33.5,29.97,NNE,22,7.0,8.0,41,0.00,CLR,,0.00,WeatherDisplay:10.37,2013-10-28 08:20:00,
2013-10-28 04:21:00,31.3,25.5,29.97,West,270,0.0,0.0,79,0.00,CLR,,0.00,WeatherDisplay:10.37,2013-10-28 08:21:00,
2013-10-28 04:25:00,57.0,33.5,29.97,NNE,22,7.0,8.0,41,0.00,CLR,,0.00,WeatherDisplay:10.37,2013-10-28 08:25:00,
2013-10-28 04:26:00,31.3,25.5,29.97,West,270,0.0,0.0,79,0.00,CLR,,0.00,WeatherDisplay:10.37,2013-10-28 08:26:00,
2013-10-28 04:30:00,56.0,31.4,30.00,North,2,3.0,8.0,39,0.00,CLR,,0.00,WeatherDisplay:10.37,2013-10-28 08:30:00,
2013-10-28 04:31:00,31.3,25.5,29.97,WNW,292,0.0,0.0,79,0.00,CLR,,0.00,WeatherDisplay:10.37,2013-10-28 08:31:00,
2013-10-28 04:35:00,56.0,31.4,30.00,WNW,303,3.0,5.0,39,0.00,CLR,,0.00,WeatherDisplay:10.37,2013-10-28 08:35:00,
2013-10-28 04:36:00,31.3,25.5,29.97,West,270,0.0,0.0,79,0.00,CLR,,0.00,WeatherDisplay:10.37,2013-10-28 08:36:00,
2013-10-28 04:40:00,56.0,31.4,30.00,WNW,289,2.0,5.0,39,0.00,CLR,,0.00,WeatherDisplay:10.37,2013-10-28 08:40:00,
2013-10-28 04:41:00,31.1,25.3,29.97,West,270,0.0,0.0,79,0.00,CLR,,0.00,WeatherDisplay:10.37,2013-10-28 08:41:00,
2013-10-28 04:45:00,56.0,31.4,30.00,West,280,2.0,2.0,39,0.00,CLR,,0.00,WeatherDisplay:10.37,2013-10-28 08:45:00,
2013-10-28 04:46:00,31.1,25.3,29.97,West,270,0.0,0.0,79,0.00,CLR,,0.00,WeatherDisplay:10.37,2013-10-28 08:46:00,
2013-10-28 04:50:00,56.0,31.4,30.00,West,270,2.0,2.0,39,0.00,CLR,,0.00,WeatherDisplay:10.37,2013-10-28 08:50:00,
2013-10-28 04:51:00,31.1,25.7,29.99,West,270,0.0,0.0,80,0.00,CLR,,0.00,WeatherDisplay:10.37,2013-10-28 08:51:00,
2013-10-28 04:55:00,57.0,31.6,30.00,WSW,237,6.0,6.0,38,0.00,CLR,,0.00,WeatherDisplay:10.37,2013-10-28 08:55:00,
2013-10-28 04:56:00,31.1,25.7,29.99,West,270,0.0,0.0,80,0.00,CLR,,0.00,WeatherDisplay:10.37,2013-10-28 08:56:00,
2013-10-28 05:00:00,57.0,31.6,30.00,SW,225,6.0,6.0,38,0.00,CLR,,0.00,WeatherDisplay:10.37,2013-10-28 09:00:00,
2013-10-28 05:01:00,31.1,25.7,29.99,West,270,0.0,0.0,80,0.00,CLR,,0.00,WeatherDisplay:10.37,2013-10-28 09:01:00,
2013-10-28 05:05:00,57.0,31.6,30.00,WSW,243,3.0,9.0,38,0.00,CLR,,0.00,WeatherDisplay:10.37,2013-10-28 09:05:00,
2013-10-28 05:06:00,31.1,25.7,29.99,West,270,0.0,0.0,80,0.00,CLR,,0.00,WeatherDisplay:10.37,2013-10-28 09:06:00,
2013-10-28 05:10:00,57.0,31.6,30.00,NW,318,3.0,9.0,38,0.00,CLR,,0.00,WeatherDisplay:10.37,2013-10-28 09:10:00,
2013-10-28 05:11:00,31.1,25.7,29.99,West,270,0.0,0.0,80,0.00,CLR,,0.00,WeatherDisplay:10.37,2013-10-28 09:11:00,
2013-10-28 05:15:00,55.0,32.3,30.03,NNW,336,5.0,9.0,42,0.00,CLR,,0.00,WeatherDisplay:10.37,2013-10-28 09:15:00,
2013-10-28 05:16:00,31.1,25.7,29.99,West,270,0.0,0.0,80,0.00,CLR,,0.00,WeatherDisplay:10.37,2013-10-28 09:16:00,
2013-10-28 05:20:00,55.0,32.3,30.03,NW,324,5.0,6.0,42,0.00,CLR,,0.00,WeatherDisplay:10.37,2013-10-28 09:20:00,
2013-10-28 05:21:00,31.6,26.1,29.99,NW,315,1.2,1.2,80,0.00,CLR,,0.00,WeatherDisplay:10.37,2013-10-28 09:21:00,
2013-10-28 05:25:00,55.0,32.3,30.03,NW,315,5.0,6.0,42,0.00,CLR,,0.00,WeatherDisplay:10.37,2013-10-28 09:25:00,
2013-10-28 05:26:00,31.8,26.3,29.99,NNW,338,0.0,0.0,80,0.00,CLR,,0.00,WeatherDisplay:10.37,2013-10-28 09:26:00,
2013-10-28 05:30:00,54.0,32.6,30.03,NNW,338,3.0,6.0,44,0.00,CLR,,0.00,WeatherDisplay:10.37,2013-10-28 09:30:00,
2013-10-28 05:31:00,31.8,26.3,29.99,NNW,338,0.0,0.0,80,0.00,CLR,,0.00,WeatherDisplay:10.37,2013-10-28 09:31:00,
2013-10-28 05:35:00,54.0,32.6,30.03,NNE,15,3.0,0.0,44,0.00,CLR,,0.00,WeatherDisplay:10.37,2013-10-28 09:35:00,
2013-10-28 05:36:00,32.0,26.5,29.99,NNW,338,0.0,0.0,80,0.00,CLR,,0.00,WeatherDisplay:10.37,2013-10-28 09:36:00,
2013-10-28 05:40:00,54.0,32.0,30.03,NNE,22,3.0,4.0,43,0.00,CLR,,0.00,WeatherDisplay:10.37,2013-10-28 09:40:00,
2013-10-28 05:41:00,32.0,26.5,29.99,NNW,338,0.0,0.0,80,0.00,CLR,,0.00,WeatherDisplay:10.37,2013-10-28 09:41:00,
2013-10-28 05:45:00,54.0,32.0,30.03,NNE,22,3.0,4.0,43,0.00,CLR,,0.00,WeatherDisplay:10.37,2013-10-28 09:45:00,
2013-10-28 05:46:00,32.2,26.7,29.99,NNW,338,0.0,0.0,80,0.00,CLR,,0.00,WeatherDisplay:10.37,2013-10-28 09:46:00,
2013-10-28 05:50:00,54.0,32.0,30.03,NNE,22,3.0,4.0,43,0.00,CLR,,0.00,WeatherDisplay:10.37,2013-10-28 09:50:00,
2013-10-28 05:51:00,32.0,26.5,29.99,NNW,338,0.0,0.0,80,0.00,CLR,,0.00,WeatherDisplay:10.37,2013-10-28 09:51:00,
2013-10-28 05:55:00,52.0,31.8,30.06,NE,47,3.0,9.0,46,0.00,CLR,,0.00,WeatherDisplay:10.37,2013-10-28 09:55:00,
2013-10-28 05:56:00,32.0,26.5,29.99,NNW,338,0.0,0.0,80,0.00,CLR,,0.00,WeatherDisplay:10.37,2013-10-28 09:56:00,
2013-10-28 06:00:00,52.0,31.8,30.06,ENE,68,3.0,9.0,46,0.00,CLR,,0.00,WeatherDisplay:10.37,2013-10-28 10:00:00,
2013-10-28 06:01:00,32.0,26.5,29.99,NNW,338,0.0,0.0,80,0.00,CLR,,0.00,WeatherDisplay:10.37,2013-10-28 10:01:00,
2013-10-28 06:05:00,50.0,31.6,30.06,ENE,59,6.0,9.0,49,0.00,CLR,,0.00,WeatherDisplay:10.37,2013-10-28 10:05:00,
2013-10-28 06:06:00,32.0,26.5,29.98,NNW,338,0.0,0.0,80,0.00,CLR,,0.00,WeatherDisplay:10.37,2013-10-28 10:06:00,
2013-10-28 06:10:00,50.0,31.6,30.06,NE,48,6.0,6.0,49,0.00,CLR,,0.00,WeatherDisplay:10.37,2013-10-28 10:10:00,
2013-10-28 06:11:00,31.8,26.3,29.98,WSW,248,0.0,0.0,80,0.00,CLR,,0.00,WeatherDisplay:10.37,2013-10-28 10:11:00,
2013-10-28 06:15:00,50.0,31.6,30.06,NE,43,2.0,3.0,49,0.00,CLR,,0.00,WeatherDisplay:10.37,2013-10-28 10:15:00,
2013-10-28 06:16:00,31.6,26.1,29.99,WNW,292,0.0,0.0,80,0.00,CLR,,0.00,WeatherDisplay:10.37,2013-10-28 10:16:00,
2013-10-28 06:20:00,50.0,31.6,30.06,NNE,20,2.0,3.0,49,0.00,CLR,,0.00,WeatherDisplay:10.37,2013-10-28 10:20:00,
2013-10-28 06:21:00,32.0,26.5,29.99,NNW,338,0.0,0.0,80,0.00,CLR,,0.00,WeatherDisplay:10.37,2013-10-28 10:21:00,
2013-10-28 06:25:00,50.0,31.6,30.06,NNW,338,2.0,3.0,49,0.00,CLR,,0.00,WeatherDisplay:10.37,2013-10-28 10:25:00,
2013-10-28 06:26:00,32.0,26.5,29.98,NNW,338,0.0,0.0,80,0.00,CLR,,0.00,WeatherDisplay:10.37,2013-10-28 10:26:00,
2013-10-28 06:30:00,49.0,30.7,30.09,North,2,5.0,5.0,49,0.00,CLR,,0.00,WeatherDisplay:10.37,2013-10-28 10:30:00,
2013-10-28 06:31:00,31.8,26.3,29.98,NNE,22,0.0,0.0,80,0.00,CLR,,0.00,WeatherDisplay:10.37,2013-10-28 10:31:00,
2013-10-28 06:35:00,49.0,30.7,30.09,NNE,20,5.0,5.0,49,0.00,CLR,,0.00,WeatherDisplay:10.37,2013-10-28 10:35:00,
2013-10-28 06:36:00,31.8,26.3,29.98,WNW,292,0.0,0.0,80,0.00,CLR,,0.00,WeatherDisplay:10.37,2013-10-28 10:36:00,
2013-10-28 06:40:00,48.0,30.2,30.09,North,8,5.0,5.0,50,0.00,CLR,,0.00,WeatherDisplay:10.37,2013-10-28 10:40:00,
2013-10-28 06:41:00,32.0,26.5,29.98,NW,315,0.0,0.0,80,0.00,CLR,,0.00,WeatherDisplay:10.37,2013-10-28 10:41:00,
2013-10-28 06:45:00,48.0,30.2,30.09,NNW,331,5.0,5.0,50,0.00,CLR,,0.00,WeatherDisplay:10.37,2013-10-28 10:45:00,
2013-10-28 06:46:00,32.4,26.9,29.98,WNW,292,0.0,0.0,80,0.00,CLR,,0.00,WeatherDisplay:10.37,2013-10-28 10:46:00,
2013-10-28 06:50:00,48.0,30.2,30.09,NW,315,5.0,5.0,50,0.00,CLR,,0.00,WeatherDisplay:10.37,2013-10-28 10:50:00,
2013-10-28 06:51:00,32.4,26.9,29.99,WNW,292,0.0,0.0,80,0.00,CLR,,0.00,WeatherDisplay:10.37,2013-10-28 10:51:00,
2013-10-28 06:55:00,48.0,30.2,30.09,NNW,331,1.0,1.0,50,0.00,CLR,,0.00,WeatherDisplay:10.37,2013-10-28 10:55:00,
2013-10-28 06:56:00,32.4,26.9,29.99,WNW,292,0.0,0.0,80,0.00,CLR,,0.00,WeatherDisplay:10.37,2013-10-28 10:56:00,
2013-10-28 07:00:00,48.0,30.2,30.09,NNE,22,1.0,1.0,50,0.00,CLR,,0.00,WeatherDisplay:10.37,2013-10-28 11:00:00,
2013-10-28 07:01:00,32.4,26.9,29.99,West,270,0.0,0.0,80,0.00,CLR,,0.00,WeatherDisplay:10.37,2013-10-28 11:01:00,
2013-10-28 07:05:00,47.0,30.3,30.09,NNE,22,1.0,1.0,52,0.00,CLR,,0.00,WeatherDisplay:10.37,2013-10-28 11:05:00,
2013-10-28 07:06:00,32.4,26.9,29.99,West,270,0.0,0.0,80,0.00,CLR,,0.00,WeatherDisplay:10.37,2013-10-28 11:06:00,
2013-10-28 07:10:00,47.0,30.3,30.09,NNE,22,1.0,1.0,52,0.00,CLR,,0.00,WeatherDisplay:10.37,2013-10-28 11:10:00,
2013-10-28 07:11:00,32.4,26.9,29.99,West,270,0.0,0.0,80,0.00,CLR,,0.00,WeatherDisplay:10.37,2013-10-28 11:11:00,
2013-10-28 07:15:00,46.0,29.3,30.12,NNE,25,2.0,3.0,52,0.00,CLR,,0.00,WeatherDisplay:10.37,2013-10-28 11:15:00,
2013-10-28 07:16:00,32.4,26.9,30.00,NW,315,0.0,0.0,80,0.00,CLR,,0.00,WeatherDisplay:10.37,2013-10-28 11:16:00,
2013-10-28 07:20:00,46.0,29.3,30.12,NE,38,2.0,3.0,52,0.00,CLR,,0.00,WeatherDisplay:10.37,2013-10-28 11:20:00,
2013-10-28 07:21:00,32.4,26.9,30.00,NW,315,0.0,0.0,80,0.00,CLR,,0.00,WeatherDisplay:10.37,2013-10-28 11:21:00,
2013-10-28 07:25:00,46.0,29.3,30.12,NE,45,2.0,3.0,52,0.00,CLR,,0.00,WeatherDisplay:10.37,2013-10-28 11:25:00,
2013-10-28 07:26:00,32.5,27.0,30.00,West,270,0.0,0.0,80,0.00,CLR,,0.00,WeatherDisplay:10.37,2013-10-28 11:26:00,
2013-10-28 07:30:00,46.0,29.8,30.12,NNE,28,1.0,3.0,53,0.00,CLR,,0.00,WeatherDisplay:10.37,2013-10-28 11:30:00,
2013-10-28 07:31:00,33.1,27.6,30.00,NE,45,0.0,0.0,80,0.00,CLR,,0.00,WeatherDisplay:10.37,2013-10-28 11:31:00,
2013-10-28 07:35:00,46.0,29.8,30.12,West,281,1.0,0.0,53,0.00,CLR,,0.00,WeatherDisplay:10.37,2013-10-28 11:35:00,
2013-10-28 07:36:00,33.4,27.9,30.00,NNE,22,0.0,0.0,80,0.00,CLR,,0.00,WeatherDisplay:10.37,2013-10-28 11:36:00,
2013-10-28 07:40:00,45.0,28.9,30.12,West,270,0.0,2.0,53,0.00,CLR,,0.00,WeatherDisplay:10.37,2013-10-28 11:40:00,
2013-10-28 07:41:00,33.8,28.3,30.00,WNW,292,0.0,0.0,80,0.00,CLR,,0.00,WeatherDisplay:10.37,2013-10-28 11:41:00,
2013-10-28 07:45:00,45.0,28.9,30.12,West,270,0.0,2.0,53,0.00,CLR,,0.00,WeatherDisplay:10.37,2013-10-28 11:45:00,
2013-10-28 07:46:00,34.7,28.9,30.00,SW,225,1.2,1.2,79,0.00,CLR,,0.00,WeatherDisplay:10.37,2013-10-28 11:46:00,
2013-10-28 07:50:00,45.0,28.9,30.12,West,270,0.0,2.0,53,0.00,CLR,,0.00,WeatherDisplay:10.37,2013-10-28 11:50:00,
2013-10-28 07:51:00,35.6,28.8,30.00,WNW,292,0.0,0.0,76,0.00,CLR,,0.00,WeatherDisplay:10.37,2013-10-28 11:51:00,
2013-10-28 07:55:00,44.0,28.4,30.15,WNW,290,0.0,0.0,54,0.00,CLR,,0.00,WeatherDisplay:10.37,2013-10-28 11:55:00,
2013-10-28 07:56:00,36.3,28.8,30.00,WSW,248,0.0,0.0,74,0.00,CLR,,0.00,WeatherDisplay:10.37,2013-10-28 11:56:00,
2013-10-28 08:00:00,44.0,28.4,30.15,NE,45,0.0,0.0,54,0.00,CLR,,0.00,WeatherDisplay:10.37,2013-10-28 12:00:00,
2013-10-28 08:01:00,37.0,29.1,30.00,WNW,292,1.2,1.3,73,0.00,CLR,,0.00,WeatherDisplay:10.37,2013-10-28 12:01:00,
2013-10-28 08:05:00,44.0,28.9,30.15,NE,45,1.0,0.0,55,0.00,CLR,,0.00,WeatherDisplay:10.37,2013-10-28 12:05:00,
2013-10-28 08:06:00,37.6,29.4,30.01,West,270,1.2,1.2,72,0.00,CLR,,0.00,WeatherDisplay:10.37,2013-10-28 12:06:00,
2013-10-28 08:10:00,44.0,28.9,30.15,NE,45,1.0,0.0,55,0.00,CLR,,0.00,WeatherDisplay:10.37,2013-10-28 12:10:00,
2013-10-28 08:11:00,39.0,29.3,30.01,WNW,292,3.5,3.5,68,0.00,CLR,,0.00,WeatherDisplay:10.37,2013-10-28 12:11:00,
2013-10-28 08:16:00,39.0,29.3,30.01,North,360,0.0,0.0,68,0.00,CLR,,0.00,WeatherDisplay:10.37,2013-10-28 12:16:00,
2013-10-28 08:21:00,39.7,29.6,30.01,WNW,292,1.2,0.0,67,0.00,CLR,,0.00,WeatherDisplay:10.37,2013-10-28 12:21:00,
2013-10-28 08:26:00,40.8,29.6,30.01,NW,315,2.3,2.3,64,0.00,CLR,,0.00,WeatherDisplay:10.37,2013-10-28 12:26:00,
2013-10-28 08:31:00,41.2,29.9,30.01,NW,315,2.3,2.3,64,0.00,CLR,,0.00,WeatherDisplay:10.37,2013-10-28 12:31:00,
2013-10-28 08:36:00,41.7,29.6,30.01,NNE,22,1.2,1.2,62,0.00,CLR,,0.00,WeatherDisplay:10.37,2013-10-28 12:36:00,
2013-10-28 08:41:00,42.3,30.2,30.01,West,270,2.3,2.3,62,0.00,CLR,,0.00,WeatherDisplay:10.37,2013-10-28 12:41:00,
2013-10-28 08:46:00,43.3,29.9,30.01,West,270,4.7,4.7,59,0.00,CLR,,0.00,WeatherDisplay:10.37,2013-10-28 12:46:00,
2013-10-28 08:51:00,44.8,30.5,30.02,SW,225,6.9,6.9,57,0.00,CLR,,0.00,WeatherDisplay:10.37,2013-10-28 12:51:00,
2013-10-28 08:56:00,43.7,29.9,30.02,ENE,68,2.3,2.3,58,0.00,CLR,,0.00,WeatherDisplay:10.37,2013-10-28 12:56:00,
2013-10-28 09:01:00,44.8,30.0,30.02,NW,315,4.6,4.6,56,0.00,CLR,,0.00,WeatherDisplay:10.37,2013-10-28 13:01:00,
2013-10-28 09:06:00,44.8,30.5,30.01,West,270,3.5,3.5,57,0.00,CLR,,0.00,WeatherDisplay:10.37,2013-10-28 13:06:00,
2013-10-28 09:11:00,46.0,31.2,30.01,WSW,248,2.3,2.3,56,0.00,CLR,,0.00,WeatherDisplay:10.37,2013-10-28 13:11:00,
2013-10-28 09:16:00,45.7,30.4,30.01,SSE,158,5.8,5.8,55,0.00,CLR,,0.00,WeatherDisplay:10.37,2013-10-28 13:16:00,
2013-10-28 09:21:00,46.8,31.5,30.01,WSW,248,6.9,6.9,55,0.00,CLR,,0.00,WeatherDisplay:10.37,2013-10-28 13:21:00,
2013-10-28 09:26:00,46.2,30.9,30.02,West,270,5.8,5.8,55,0.00,CLR,,0.00,WeatherDisplay:10.37,2013-10-28 13:26:00,
2013-10-28 09:31:00,46.8,31.5,30.02,South,180,5.8,5.8,55,0.00,CLR,,0.00,WeatherDisplay:10.37,2013-10-28 13:31:00,
2013-10-28 09:36:00,46.6,31.3,30.02,North,360,2.3,2.3,55,0.00,CLR,,0.00,WeatherDisplay:10.37,2013-10-28 13:36:00,
2013-10-28 09:41:00,48.0,32.6,30.01,West,270,4.6,4.6,55,0.00,CLR,,0.00,WeatherDisplay:10.37,2013-10-28 13:41:00,
2013-10-28 09:46:00,48.2,32.3,30.01,NNE,22,3.5,3.5,54,0.00,CLR,,0.00,WeatherDisplay:10.37,2013-10-28 13:46:00,
2013-10-28 09:51:00,48.7,32.8,30.01,SSE,158,4.6,4.6,54,0.00,CLR,,0.00,WeatherDisplay:10.37,2013-10-28 13:51:00,
2013-10-28 09:56:00,49.6,32.7,30.01,West,270,6.3,6.3,52,0.00,CLR,,0.00,WeatherDisplay:10.37,2013-10-28 13:56:00,
2013-10-28 10:01:00,48.9,32.5,30.01,West,270,5.8,5.8,53,0.00,CLR,,0.00,WeatherDisplay:10.37,2013-10-28 14:01:00,
2013-10-28 10:06:00,50.0,32.6,30.01,West,270,5.8,5.8,51,0.00,CLR,,0.00,WeatherDisplay:10.37,2013-10-28 14:06:00,
2013-10-28 10:11:00,50.0,32.6,30.01,WSW,248,4.7,4.7,51,0.00,CLR,,0.00,WeatherDisplay:10.37,2013-10-28 14:11:00,
2013-10-28 10:16:00,50.7,32.7,30.00,WNW,292,4.7,4.7,50,0.00,CLR,,0.00,WeatherDisplay:10.37,2013-10-28 14:16:00,
2013-10-28 10:21:00,51.3,32.8,30.00,ESE,112,4.6,4.6,49,0.00,CLR,,0.00,WeatherDisplay:10.37,2013-10-28 14:21:00,
2013-10-28 10:26:00,50.4,32.4,30.00,NNE,22,5.8,5.8,50,0.00,CLR,,0.00,WeatherDisplay:10.37,2013-10-28 14:26:00,
2013-10-28 10:31:00,52.2,32.6,30.00,WNW,292,4.6,4.6,47,0.00,CLR,,0.00,WeatherDisplay:10.37,2013-10-28 14:31:00,
2013-10-28 10:36:00,51.1,32.1,30.00,SSE,158,3.5,3.5,48,0.00,CLR,,0.00,WeatherDisplay:10.37,2013-10-28 14:36:00,
2013-10-28 10:41:00,52.0,32.4,30.00,East,90,8.1,8.1,47,0.00,CLR,,0.00,WeatherDisplay:10.37,2013-10-28 14:41:00,
2013-10-28 10:46:00,52.2,32.6,30.00,South,180,4.6,4.6,47,0.00,CLR,,0.00,WeatherDisplay:10.37,2013-10-28 14:46:00,
2013-10-28 10:51:00,53.1,32.3,30.00,WSW,248,5.8,5.8,45,0.00,CLR,,0.00,WeatherDisplay:10.37,2013-10-28 14:51:00,
2013-10-28 10:56:00,53.8,32.4,30.00,South,180,8.1,8.1,44,0.00,CLR,,0.00,WeatherDisplay:10.37,2013-10-28 14:56:00,
2013-10-28 11:01:00,54.7,32.6,30.00,WNW,292,8.1,8.1,43,0.00,CLR,,0.00,WeatherDisplay:10.37,2013-10-28 15:01:00,
2013-10-28 11:06:00,54.3,32.3,29.99,West,270,5.8,5.8,43,0.00,CLR,,0.00,WeatherDisplay:10.37,2013-10-28 15:06:00,
2013-10-28 11:11:00,53.8,32.4,29.99,NNE,22,4.6,4.6,44,0.00,CLR,,0.00,WeatherDisplay:10.37,2013-10-28 15:11:00,
2013-10-28 11:16:00,55.9,32.5,29.99,WSW,248,6.9,6.9,41,0.00,CLR,,0.00,WeatherDisplay:10.37,2013-10-28 15:16:00,
2013-10-28 11:21:00,54.7,32.0,29.99,West,270,4.7,4.7,42,0.00,CLR,,0.00,WeatherDisplay:10.37,2013-10-28 15:21:00,
2013-10-28 11:26:00,55.2,32.5,29.99,West,270,3.7,3.7,42,0.00,CLR,,0.00,WeatherDisplay:10.37,2013-10-28 15:26:00,
2013-10-28 11:31:00,56.7,33.2,29.99,West,270,7.3,7.3,41,0.00,CLR,,0.00,WeatherDisplay:10.37,2013-10-28 15:31:00,
2013-10-28 11:36:00,57.6,33.4,29.99,West,270,6.8,6.8,40,0.00,CLR,,0.00,WeatherDisplay:10.37,2013-10-28 15:36:00,
2013-10-28 11:41:00,57.0,32.9,29.99,WSW,248,9.2,9.2,40,0.00,CLR,,0.00,WeatherDisplay:10.37,2013-10-28 15:41:00,
2013-10-28 11:46:00,57.2,33.7,29.99,WSW,248,5.3,5.3,41,0.00,CLR,,0.00,WeatherDisplay:10.37,2013-10-28 15:46:00,
2013-10-28 11:51:00,57.2,33.7,29.98,SSE,158,3.5,3.5,41,0.00,CLR,,0.00,WeatherDisplay:10.37,2013-10-28 15:51:00,
2013-10-28 11:56:00,59.2,34.2,29.98,WNW,292,6.3,6.3,39,0.00,CLR,,0.00,WeatherDisplay:10.37,2013-10-28 15:56:00,
2013-10-28 12:01:00,57.2,33.1,29.98,NNE,22,4.6,4.6,40,0.00,CLR,,0.00,WeatherDisplay:10.37,2013-10-28 16:01:00,
2013-10-28 12:06:00,58.8,33.2,29.98,NW,315,11.5,11.5,38,0.00,CLR,,0.00,WeatherDisplay:10.37,2013-10-28 16:06:00,
2013-10-28 12:11:00,57.4,33.3,29.98,NE,45,8.1,8.1,40,0.00,CLR,,0.00,WeatherDisplay:10.37,2013-10-28 16:11:00,
2013-10-28 12:16:00,57.6,32.8,29.97,NNE,22,8.1,8.1,39,0.00,CLR,,0.00,WeatherDisplay:10.37,2013-10-28 16:16:00,
2013-10-28 12:21:00,57.4,32.6,29.97,NW,315,8.1,8.1,39,0.00,CLR,,0.00,WeatherDisplay:10.37,2013-10-28 16:21:00,
2013-10-28 12:26:00,58.1,33.2,29.97,West,270,11.5,11.5,39,0.00,CLR,,0.00,WeatherDisplay:10.37,2013-10-28 16:26:00,
2013-10-28 12:31:00,57.9,33.1,29.97,WNW,292,6.9,6.9,39,0.00,CLR,,0.00,WeatherDisplay:10.37,2013-10-28 16:31:00,
2013-10-28 12:36:00,59.0,32.7,29.97,West,270,6.9,6.9,37,0.00,CLR,,0.00,WeatherDisplay:10.37,2013-10-28 16:36:00,
2013-10-28 12:41:00,58.6,33.0,29.97,NE,45,6.9,6.9,38,0.00,CLR,,0.00,WeatherDisplay:10.37,2013-10-28 16:41:00,
2013-10-28 12:46:00,58.3,32.8,29.97,WNW,292,3.5,3.5,38,0.00,CLR,,0.00,WeatherDisplay:10.37,2013-10-28 16:46:00,
2013-10-28 12:51:00,60.8,33.7,29.97,West,270,10.4,10.4,36,0.00,CLR,,0.00,WeatherDisplay:10.37,2013-10-28 16:51:00,
2013-10-28 12:56:00,59.2,32.9,29.97,WNW,292,10.4,10.4,37,0.00,CLR,,0.00,WeatherDisplay:10.37,2013-10-28 16:56:00,
2013-10-28 19:15:00,43.7,28.6,30.17,NNW,338,1.1,1.1,55,0.00,CLR,,0.00,WeatherDisplay:10.37,2013-10-28 23:15:00,
2013-10-28 19:20:00,43.7,28.6,30.17,NNW,338,2.7,2.7,55,0.00,CLR,,0.00,WeatherDisplay:10.37,2013-10-28 23:20:00,
2013-10-28 19:25:00,44.1,28.0,30.17,NW,315,2.3,2.3,53,0.00,CLR,,0.00,WeatherDisplay:10.37,2013-10-28 23:25:00,
2013-10-28 19:30:00,43.9,27.9,30.17,NNW,338,2.3,2.3,53,0.00,CLR,,0.00,WeatherDisplay:10.37,2013-10-28 23:30:00,
2013-10-28 19:35:00,44.2,27.7,30.17,North,360,2.7,2.7,52,0.00,CLR,,0.00,WeatherDisplay:10.37,2013-10-28 23:35:00,
2013-10-28 19:40:00,44.1,27.6,30.18,NW,315,2.7,2.7,52,0.00,CLR,,0.00,WeatherDisplay:10.37,2013-10-28 23:40:00,
2013-10-28 19:45:00,44.1,27.1,30.18,WNW,292,1.2,0.0,51,0.00,CLR,,0.00,WeatherDisplay:10.37,2013-10-28 23:45:00,
2013-10-28 19:50:00,43.7,26.7,30.19,North,360,1.2,0.0,51,0.00,CLR,,0.00,WeatherDisplay:10.37,2013-10-28 23:50:00,
2013-10-28 19:55:00,43.5,26.6,30.19,NE,45,1.7,1.7,51,0.00,CLR,,0.00,WeatherDisplay:10.37,2013-10-28 23:55:00,
2013-10-28 20:00:00,43.3,26.4,30.19,NE,45,2.3,2.3,51,0.00,CLR,,0.00,WeatherDisplay:10.37,2013-10-29 00:00:00,
2013-10-28 20:05:00,43.0,26.1,30.19,West,270,0.0,0.0,51,0.00,CLR,,0.00,WeatherDisplay:10.37,2013-10-29 00:05:00,
2013-10-28 20:10:00,43.2,26.3,30.19,NW,315,2.3,2.3,51,0.00,CLR,,0.00,WeatherDisplay:10.37,2013-10-29 00:10:00,
2013-10-28 20:15:00,43.2,25.8,30.19,NW,315,2.3,2.3,50,0.00,CLR,,0.00,WeatherDisplay:10.37,2013-10-29 00:15:00,
2013-10-28 20:20:00,42.8,24.9,30.19,NNW,338,4.6,4.6,49,0.00,CLR,,0.00,WeatherDisplay:10.37,2013-10-29 00:20:00,
2013-10-28 20:25:00,42.8,24.9,30.19,WNW,292,1.2,0.0,49,0.00,CLR,,0.00,WeatherDisplay:10.37,2013-10-29 00:25:00,
2013-10-28 20:30:00,42.8,24.4,30.20,NW,315,2.3,2.3,48,0.00,CLR,,0.00,WeatherDisplay:10.37,2013-10-29 00:30:00,
2013-10-28 20:35:00,42.6,24.3,30.20,NE,45,3.5,3.5,48,0.00,CLR,,0.00,WeatherDisplay:10.37,2013-10-29 00:35:00,
2013-10-28 20:40:00,42.4,24.1,30.20,NE,45,1.2,1.2,48,0.00,CLR,,0.00,WeatherDisplay:10.37,2013-10-29 00:40:00,
2013-10-28 20:45:00,42.1,23.8,30.20,NNE,22,1.7,1.7,48,0.00,CLR,,0.00,WeatherDisplay:10.37,2013-10-29 00:45:00,
2013-10-28 20:50:00,42.1,23.8,30.20,NNW,338,0.0,0.0,48,0.00,CLR,,0.00,WeatherDisplay:10.37,2013-10-29 00:50:00,
2013-10-28 20:55:00,41.5,23.7,30.20,SW,225,2.7,2.7,49,0.00,CLR,,0.00,WeatherDisplay:10.37,2013-10-29 00:55:00,
2013-10-28 21:00:00,41.2,23.5,30.20,SE,135,2.3,2.3,49,0.00,CLR,,0.00,WeatherDisplay:10.37,2013-10-29 01:00:00,
2013-10-28 21:05:00,40.8,23.6,30.21,WNW,292,1.2,1.2,50,0.00,CLR,,0.00,WeatherDisplay:10.37,2013-10-29 01:05:00,
2013-10-28 21:10:00,40.3,23.6,30.21,ESE,112,0.0,0.0,51,0.00,CLR,,0.00,WeatherDisplay:10.37,2013-10-29 01:10:00,
2013-10-28 21:15:00,39.9,23.2,30.21,West,270,1.1,1.1,51,0.00,CLR,,0.00,WeatherDisplay:10.37,2013-10-29 01:15:00,
2013-10-28 21:20:00,39.9,23.2,30.21,West,270,0.0,0.0,51,0.00,CLR,,0.00,WeatherDisplay:10.37,2013-10-29 01:20:00,
2013-10-28 21:25:00,39.6,22.9,30.21,NNE,22,2.3,2.3,51,0.00,CLR,,0.00,WeatherDisplay:10.37,2013-10-29 01:25:00,
2013-10-28 21:30:00,39.4,22.8,30.22,SW,225,1.7,1.8,51,0.00,CLR,,0.00,WeatherDisplay:10.37,2013-10-29 01:30:00,
2013-10-28 21:35:00,39.0,22.8,30.22,ENE,68,0.0,0.0,52,0.00,CLR,,0.00,WeatherDisplay:10.37,2013-10-29 01:35:00,
2013-10-28 21:40:00,38.7,22.6,30.22,WNW,292,1.2,1.6,52,0.00,CLR,,0.00,WeatherDisplay:10.37,2013-10-29 01:40:00,
2013-10-28 21:45:00,38.7,22.6,30.22,ESE,112,0.0,0.0,52,0.00,CLR,,0.00,WeatherDisplay:10.37,2013-10-29 01:45:00,
2013-10-28 21:50:00,38.5,22.4,30.23,NNE,22,1.2,1.2,52,0.00,CLR,,0.00,WeatherDisplay:10.37,2013-10-29 01:50:00,
2013-10-28 21:55:00,38.1,22.5,30.23,West,270,0.0,0.0,53,0.00,CLR,,0.00,WeatherDisplay:10.37,2013-10-29 01:55:00,
2013-10-28 22:00:00,37.9,22.3,30.23,NE,45,1.1,1.1,53,0.00,CLR,,0.00,WeatherDisplay:10.37,2013-10-29 02:00:00,
2013-10-28 22:05:00,37.6,22.0,30.23,ENE,68,0.0,0.0,53,0.00,CLR,,0.00,WeatherDisplay:10.37,2013-10-29 02:05:00,
2013-10-28 22:10:00,37.4,22.3,30.23,NNE,22,0.0,0.0,54,0.00,CLR,,0.00,WeatherDisplay:10.37,2013-10-29 02:10:00,
2013-10-28 22:16:00,37.0,21.9,30.23,SSW,202,0.0,0.0,54,0.00,CLR,,0.00,WeatherDisplay:10.37,2013-10-29 02:16:00,
2013-10-28 22:21:00,36.9,21.8,30.23,SSE,158,0.0,0.0,54,0.00,CLR,,0.00,WeatherDisplay:10.37,2013-10-29 02:21:00,
2013-10-28 22:26:00,36.5,21.4,30.24,West,270,0.0,0.0,54,0.00,CLR,,0.00,WeatherDisplay:10.37,2013-10-29 02:26:00,
2013-10-28 22:31:00,36.3,21.7,30.24,NW,315,0.0,0.0,55,0.00,CLR,,0.00,WeatherDisplay:10.37,2013-10-29 02:31:00,
2013-10-28 22:36:00,36.1,21.5,30.24,ESE,112,0.0,0.0,55,0.00,CLR,,0.00,WeatherDisplay:10.37,2013-10-29 02:36:00,
2013-10-28 22:41:00,35.6,21.0,30.25,WNW,292,0.0,0.0,55,0.00,CLR,,0.00,WeatherDisplay:10.37,2013-10-29 02:41:00,
2013-10-28 22:46:00,35.4,21.2,30.25,West,270,0.0,0.0,56,0.00,CLR,,0.00,WeatherDisplay:10.37,2013-10-29 02:46:00,
2013-10-28 22:51:00,35.4,21.2,30.25,NW,315,0.0,0.0,56,0.00,CLR,,0.00,WeatherDisplay:10.37,2013-10-29 02:51:00,
2013-10-28 22:56:00,34.9,20.8,30.25,WNW,292,0.0,0.0,56,0.00,CLR,,0.00,WeatherDisplay:10.37,2013-10-29 02:56:00,
2013-10-28 23:01:00,34.5,20.4,30.25,West,270,0.0,0.0,56,0.00,CLR,,0.00,WeatherDisplay:10.37,2013-10-29 03:01:00,
2013-10-28 23:06:00,34.2,20.5,30.24,East,90,0.0,0.0,57,0.00,CLR,,0.00,WeatherDisplay:10.37,2013-10-29 03:06:00,
2013-10-28 23:11:00,34.0,20.3,30.24,WSW,248,0.0,0.0,57,0.00,CLR,,0.00,WeatherDisplay:10.37,2013-10-29 03:11:00,
2013-10-28 23:16:00,33.6,20.4,30.24,West,270,0.0,0.0,58,0.00,CLR,,0.00,WeatherDisplay:10.37,2013-10-29 03:16:00,
2013-10-28 23:21:00,33.4,20.2,30.24,NE,45,0.0,0.0,58,0.00,CLR,,0.00,WeatherDisplay:10.37,2013-10-29 03:21:00,
2013-10-28 23:26:00,32.9,19.7,30.25,West,270,0.0,0.0,58,0.00,CLR,,0.00,WeatherDisplay:10.37,2013-10-29 03:26:00,
2013-10-28 23:31:00,32.9,20.5,30.25,North,360,0.0,0.0,60,0.00,CLR,,0.00,WeatherDisplay:10.37,2013-10-29 03:31:00,
2013-10-28 23:36:00,32.7,20.3,30.25,West,270,0.0,0.0,60,0.00,CLR,,0.00,WeatherDisplay:10.37,2013-10-29 03:36:00,
2013-10-28 23:41:00,32.4,20.4,30.25,West,270,0.0,0.0,61,0.00,CLR,,0.00,WeatherDisplay:10.37,2013-10-29 03:41:00,
2013-10-28 23:46:00,32.2,20.6,30.25,NW,315,0.0,0.0,62,0.00,CLR,,0.00,WeatherDisplay:10.37,2013-10-29 03:46:00,
2013-10-28 23:51:00,31.8,20.6,30.25,West,270,0.0,0.0,63,0.00,CLR,,0.00,WeatherDisplay:10.37,2013-10-29 03:51:00,
2013-10-28 23:56:00,31.8,20.6,30.25,East,90,0.0,0.0,63,0.00,CLR,,0.00,WeatherDisplay:10.37,2013-10-29 03:56:00,